Time;durP1;ratioP1;P1;durP2;ratioP2;P2;SDS_P1;SDS_P2;PMS_P1;PMS_P2;Temp;Humidity;BMP_temperature;BMP_pressure;BME280_temperature;BME280_humidity;BME280_pressure;Samples;Min_cycle;Max_cycle;Signal;HPM_P1;HPM_P2
2021/10/16 00:02:16;;;;;;;5.27;2.83;;;6.10;99.90;;;;;;5119180;27;20685;-67
2021/10/16 00:04:43;;;;;;;11.60;2.67;;;6.00;99.90;;;;;;5118059;27;20244;-67
2021/10/16 00:07:10;;;;;;;7.10;3.00;;;6.00;99.90;;;;;;5114182;27;20225;-68
2021/10/16 00:09:37;;;;;;;12.03;3.07;;;6.00;99.90;;;;;;5118516;27;20560;-67
2021/10/16 00:12:04;;;;;;;8.60;2.60;;;6.10;99.90;;;;;;5112961;27;20221;-68
2021/10/16 00:14:31;;;;;;;7.73;2.47;;;6.10;99.90;;;;;;5123864;27;20193;-67
2021/10/16 00:16:58;;;;;;;6.83;2.83;;;6.20;99.90;;;;;;5119156;27;20205;-67
2021/10/16 00:19:27;;;;;;;8.43;2.60;;;6.10;99.90;;;;;;5120876;27;20273;-67
2021/10/16 00:21:53;;;;;;;6.83;2.30;;;5.90;99.90;;;;;;5123031;27;20227;-68
2021/10/16 00:24:20;;;;;;;10.67;4.00;;;5.90;99.90;;;;;;5123240;27;20566;-68
2021/10/16 00:26:47;;;;;;;9.20;2.57;;;6.00;99.90;;;;;;5124859;27;20273;-68
2021/10/16 00:29:14;;;;;;;6.83;2.23;;;5.90;99.90;;;;;;5116931;27;20220;-68
2021/10/16 00:31:41;;;;;;;10.83;2.43;;;6.10;99.90;;;;;;5130704;27;20320;-68
2021/10/16 00:34:08;;;;;;;6.37;2.23;;;6.20;99.90;;;;;;5131607;27;20188;-67
2021/10/16 00:36:37;;;;;;;10.20;2.53;;;6.00;99.90;;;;;;5126232;27;20200;-68
2021/10/16 00:39:04;;;;;;;7.77;2.57;;;6.00;99.90;;;;;;5110293;28;20197;-68
2021/10/16 00:41:31;;;;;;;10.33;3.00;;;6.10;99.90;;;;;;5114100;27;20196;-68
2021/10/16 00:44:15;;;;;;;7.63;2.60;;;6.00;99.90;;;;;;5112356;28;20209;-68
2021/10/16 00:46:42;;;;;;;8.87;2.40;;;6.10;99.90;;;;;;5128714;27;20634;-68
2021/10/16 00:49:09;;;;;;;7.30;2.50;;;6.10;99.90;;;;;;5127526;27;20200;-68
2021/10/16 00:51:38;;;;;;;9.93;2.33;;;6.10;99.90;;;;;;5123483;28;20617;-68
2021/10/16 00:54:07;;;;;;;10.43;2.40;;;6.00;99.90;;;;;;5116493;28;20252;-67
2021/10/16 00:56:36;;;;;;;6.73;1.90;;;6.00;99.90;;;;;;5123695;28;20722;-68
2021/10/16 00:59:04;;;;;;;13.13;2.80;;;6.00;99.90;;;;;;5123854;27;20517;-68
2021/10/16 01:01:32;;;;;;;14.90;3.73;;;6.20;99.90;;;;;;5134349;27;20288;-68
2021/10/16 01:03:59;;;;;;;11.67;2.50;;;6.10;99.90;;;;;;5133167;27;20653;-68
2021/10/16 01:06:26;;;;;;;20.73;3.63;;;6.20;99.90;;;;;;5123395;27;20600;-68
2021/10/16 01:08:56;;;;;;;9.57;2.00;;;6.10;99.90;;;;;;5126625;27;20283;-68
2021/10/16 01:11:34;;;;;;;12.43;2.67;;;6.20;99.90;;;;;;5115394;27;20200;-68
2021/10/16 01:14:04;;;;;;;7.40;2.23;;;6.10;99.90;;;;;;5133514;27;20284;-68
2021/10/16 01:16:32;;;;;;;8.50;2.27;;;6.20;99.90;;;;;;5127755;27;20650;-68
2021/10/16 01:18:59;;;;;;;9.53;3.20;;;6.10;99.90;;;;;;5123843;27;20253;-68
2021/10/16 01:21:30;;;;;;;8.43;2.67;;;6.10;99.90;;;;;;5130546;27;20196;-68
2021/10/16 01:23:58;;;;;;;5.83;2.33;;;6.10;99.90;;;;;;5131035;27;20188;-68
2021/10/16 01:26:28;;;;;;;7.33;2.03;;;6.10;99.90;;;;;;5133181;27;20200;-68
2021/10/16 01:28:57;;;;;;;7.53;2.13;;;6.10;99.90;;;;;;5125646;27;20189;-68
2021/10/16 01:31:25;;;;;;;5.27;2.07;;;5.90;99.90;;;;;;5130671;27;20204;-68
2021/10/16 01:33:52;;;;;;;8.93;3.33;;;5.90;99.90;;;;;;5113552;28;20225;-68
2021/10/16 01:36:19;;;;;;;7.80;2.43;;;6.10;99.90;;;;;;5132893;27;20200;-67
2021/10/16 01:38:48;;;;;;;12.43;2.27;;;6.00;99.90;;;;;;5130016;27;20257;-67
2021/10/16 01:41:15;;;;;;;3.57;2.10;;;6.00;99.90;;;;;;5125672;27;20203;-68
2021/10/16 01:43:42;;;;;;;10.63;2.10;;;6.00;99.90;;;;;;5133615;27;20232;-68
2021/10/16 01:46:09;;;;;;;9.10;2.20;;;6.00;99.90;;;;;;5131227;27;20430;-67
2021/10/16 01:48:36;;;;;;;10.00;2.23;;;6.00;99.90;;;;;;5124342;27;20249;-68
2021/10/16 01:51:03;;;;;;;9.87;2.10;;;6.00;99.90;;;;;;5130840;27;20208;-68
2021/10/16 01:53:30;;;;;;;5.63;2.03;;;5.90;99.90;;;;;;5115070;27;20221;-68
2021/10/16 01:55:58;;;;;;;7.57;1.73;;;5.90;99.90;;;;;;5130453;27;20197;-68
2021/10/16 01:58:25;;;;;;;7.03;2.10;;;6.00;99.90;;;;;;5130278;27;20238;-68
2021/10/16 02:00:52;;;;;;;7.73;2.10;;;5.90;99.90;;;;;;5127429;27;20641;-68
2021/10/16 02:03:19;;;;;;;8.43;2.33;;;5.90;99.90;;;;;;5129876;27;20200;-68
2021/10/16 02:05:47;;;;;;;7.67;2.23;;;5.90;99.90;;;;;;5118993;27;20188;-68
2021/10/16 02:08:14;;;;;;;10.20;2.40;;;5.90;99.90;;;;;;5116469;27;20261;-68
2021/10/16 02:10:42;;;;;;;6.07;2.50;;;5.90;99.90;;;;;;5121835;27;20271;-67
2021/10/16 02:13:11;;;;;;;8.20;1.97;;;5.90;99.90;;;;;;5119550;27;20721;-67
2021/10/16 02:15:38;;;;;;;6.40;2.30;;;5.90;99.90;;;;;;5119297;27;20714;-67
2021/10/16 02:18:05;;;;;;;6.17;2.97;;;6.00;99.90;;;;;;5123927;27;20253;-67
2021/10/16 02:20:32;;;;;;;8.43;2.63;;;6.00;99.90;;;;;;5119888;27;20654;-67
2021/10/16 02:22:59;;;;;;;11.83;2.50;;;6.00;99.90;;;;;;5121442;27;20211;-67
2021/10/16 02:25:26;;;;;;;9.47;2.60;;;6.00;99.90;;;;;;5129958;27;20200;-68
2021/10/16 02:27:53;;;;;;;9.53;2.40;;;6.00;99.90;;;;;;5120862;27;20200;-67
2021/10/16 02:30:21;;;;;;;5.27;1.90;;;5.90;99.90;;;;;;5118566;27;20197;-67
2021/10/16 02:32:48;;;;;;;5.20;1.93;;;5.90;99.90;;;;;;5120701;27;20294;-67
2021/10/16 02:35:15;;;;;;;6.80;2.20;;;5.90;99.90;;;;;;5127277;27;20200;-67
2021/10/16 02:37:42;;;;;;;6.50;1.93;;;5.90;99.90;;;;;;5121780;27;20811;-68
2021/10/16 02:40:11;;;;;;;9.50;2.47;;;5.90;99.90;;;;;;5120350;27;20780;-67
2021/10/16 02:42:39;;;;;;;5.53;2.23;;;5.80;99.90;;;;;;5122857;27;20200;-67
2021/10/16 02:45:06;;;;;;;9.70;2.30;;;5.80;99.90;;;;;;5119921;27;20335;-67
2021/10/16 02:47:35;;;;;;;9.00;2.50;;;5.80;99.90;;;;;;5124037;27;20204;-67
2021/10/16 02:50:02;;;;;;;4.33;1.60;;;5.70;99.90;;;;;;5122249;27;20249;-67
2021/10/16 02:52:29;;;;;;;7.67;2.07;;;5.60;99.90;;;;;;5127558;27;20204;-68
2021/10/16 02:54:56;;;;;;;8.50;2.20;;;5.50;99.90;;;;;;5120900;27;20613;-67
2021/10/16 02:57:23;;;;;;;9.37;2.23;;;5.60;99.90;;;;;;5120388;27;20714;-67
2021/10/16 02:59:50;;;;;;;6.97;2.20;;;5.70;99.90;;;;;;5123468;27;20611;-67
2021/10/16 03:02:17;;;;;;;5.13;2.07;;;5.60;99.90;;;;;;5121364;27;20625;-67
2021/10/16 03:04:45;;;;;;;5.10;2.00;;;5.50;99.90;;;;;;5123602;27;20204;-67
2021/10/16 03:07:12;;;;;;;6.80;1.80;;;5.50;99.90;;;;;;5121236;27;20215;-75
2021/10/16 03:09:39;;;;;;;6.93;2.50;;;5.50;99.90;;;;;;5117678;27;20205;-67
2021/10/16 03:12:06;;;;;;;8.37;2.10;;;5.50;99.90;;;;;;5119583;27;20675;-67
2021/10/16 03:14:33;;;;;;;5.47;2.07;;;5.30;99.90;;;;;;5116866;27;20212;-67
2021/10/16 03:16:59;;;;;;;4.33;2.17;;;5.20;99.90;;;;;;5120001;27;20208;-67
2021/10/16 03:19:26;;;;;;;9.50;2.67;;;5.40;99.90;;;;;;5125985;27;20208;-67
2021/10/16 03:21:56;;;;;;;8.97;2.30;;;5.40;99.90;;;;;;5120099;27;20208;-67
2021/10/16 03:24:23;;;;;;;9.10;2.30;;;5.50;99.90;;;;;;5125135;27;20201;-67
2021/10/16 03:26:50;;;;;;;12.27;2.30;;;5.50;99.90;;;;;;5140990;27;20196;-67
2021/10/16 03:29:16;;;;;;;4.03;2.00;;;5.40;99.90;;;;;;5125200;27;20672;-67
2021/10/16 03:31:43;;;;;;;9.27;2.10;;;5.50;99.90;;;;;;5120470;27;20287;-67
2021/10/16 03:34:12;;;;;;;6.43;1.90;;;5.40;99.90;;;;;;5125756;27;20208;-67
2021/10/16 03:36:39;;;;;;;7.10;2.40;;;5.30;99.90;;;;;;5124319;27;20288;-67
2021/10/16 03:39:07;;;;;;;10.57;2.10;;;5.30;99.90;;;;;;5112846;27;20200;-67
2021/10/16 03:41:34;;;;;;;7.57;2.37;;;5.40;99.90;;;;;;5113017;28;20201;-67
2021/10/16 03:44:00;;;;;;;4.87;1.90;;;5.30;99.90;;;;;;5125908;27;20197;-67
2021/10/16 03:46:27;;;;;;;6.60;1.90;;;5.40;99.90;;;;;;5130522;27;20211;-67
2021/10/16 03:48:54;;;;;;;9.53;2.20;;;5.50;99.90;;;;;;5132487;27;20675;-67
2021/10/16 03:51:22;;;;;;;6.57;2.07;;;5.50;99.90;;;;;;5129435;27;20223;-67
2021/10/16 03:53:49;;;;;;;9.47;2.03;;;5.30;99.90;;;;;;5131775;27;20564;-67
2021/10/16 03:56:17;;;;;;;6.20;2.30;;;5.40;99.90;;;;;;5114917;27;20208;-67
2021/10/16 03:58:44;;;;;;;9.70;2.07;;;5.40;99.90;;;;;;5129659;27;20283;-67
2021/10/16 04:01:11;;;;;;;5.83;2.10;;;5.40;99.90;;;;;;5122262;27;20308;-68
2021/10/16 04:03:38;;;;;;;5.30;2.10;;;5.30;99.90;;;;;;5118532;27;20563;-67
2021/10/16 04:06:05;;;;;;;9.23;2.90;;;5.30;99.90;;;;;;5119729;27;20200;-67
2021/10/16 04:08:32;;;;;;;5.20;2.20;;;5.40;99.90;;;;;;5123161;27;20276;-67
2021/10/16 04:10:59;;;;;;;8.57;2.20;;;5.40;99.90;;;;;;5122246;27;20750;-67
2021/10/16 04:13:27;;;;;;;6.30;2.40;;;5.40;99.90;;;;;;5126955;27;20220;-67
2021/10/16 04:15:54;;;;;;;6.87;2.40;;;5.40;99.90;;;;;;5117859;27;20665;-67
2021/10/16 04:18:21;;;;;;;6.90;2.07;;;5.50;99.90;;;;;;5125115;27;20219;-67
2021/10/16 04:20:47;;;;;;;7.47;3.00;;;5.40;99.90;;;;;;5123420;27;20646;-67
2021/10/16 04:23:14;;;;;;;7.87;2.20;;;5.50;99.90;;;;;;5128379;27;20203;-67
2021/10/16 04:25:41;;;;;;;5.43;1.83;;;5.50;99.90;;;;;;5130316;27;20204;-67
2021/10/16 04:28:08;;;;;;;10.57;2.70;;;5.50;99.90;;;;;;5117199;27;20204;-67
2021/10/16 04:30:36;;;;;;;5.63;1.90;;;5.60;99.90;;;;;;5116389;27;20595;-67
2021/10/16 04:33:03;;;;;;;7.37;2.70;;;5.50;99.90;;;;;;5130513;27;20196;-67
2021/10/16 04:35:30;;;;;;;9.97;2.40;;;5.50;99.90;;;;;;5120863;27;20201;-67
2021/10/16 04:37:57;;;;;;;8.53;2.80;;;5.60;99.90;;;;;;5131815;27;20201;-67
2021/10/16 04:40:26;;;;;;;9.97;3.17;;;5.60;99.90;;;;;;5119209;27;20193;-67
2021/10/16 04:42:54;;;;;;;8.60;2.20;;;5.50;99.90;;;;;;5113173;27;20236;-67
2021/10/16 04:45:22;;;;;;;8.17;2.40;;;5.40;99.90;;;;;;5114045;28;20208;-67
2021/10/16 04:47:50;;;;;;;9.90;2.47;;;5.50;99.90;;;;;;5112243;28;20232;-67
2021/10/16 04:50:17;;;;;;;7.70;2.67;;;5.50;99.90;;;;;;5126493;27;20199;-67
2021/10/16 04:52:44;;;;;;;6.50;2.20;;;5.50;99.90;;;;;;5130638;28;20204;-67
2021/10/16 04:55:12;;;;;;;6.43;2.43;;;5.40;99.90;;;;;;5130613;27;20704;-67
2021/10/16 04:57:39;;;;;;;7.40;2.20;;;5.40;99.90;;;;;;5126037;27;20560;-67
2021/10/16 05:00:07;;;;;;;8.90;2.50;;;5.40;99.90;;;;;;5128824;27;20593;-67
2021/10/16 05:02:34;;;;;;;15.70;4.93;;;5.40;99.90;;;;;;5132100;28;20659;-67
2021/10/16 05:05:03;;;;;;;6.40;2.40;;;5.40;99.90;;;;;;5130118;28;20207;-67
2021/10/16 05:07:30;;;;;;;6.60;2.23;;;5.40;99.90;;;;;;5128640;27;20215;-67
2021/10/16 05:09:57;;;;;;;7.37;2.27;;;5.40;99.90;;;;;;5124241;27;20593;-67
2021/10/16 05:12:24;;;;;;;7.83;2.67;;;5.30;99.90;;;;;;5130471;28;20207;-67
2021/10/16 05:14:51;;;;;;;6.10;2.40;;;5.40;99.90;;;;;;5122637;28;20715;-67
2021/10/16 05:17:18;;;;;;;8.73;2.10;;;5.30;99.90;;;;;;5128334;28;20199;-67
2021/10/16 05:19:44;;;;;;;9.40;2.67;;;5.40;99.90;;;;;;5122714;28;20204;-67
2021/10/16 05:22:13;;;;;;;8.37;2.30;;;5.40;99.90;;;;;;5129198;27;20192;-67
2021/10/16 05:24:39;;;;;;;13.67;3.63;;;5.50;99.90;;;;;;5129333;28;20667;-67
2021/10/16 05:27:06;;;;;;;10.60;3.17;;;5.50;99.90;;;;;;5130894;27;20193;-67
2021/10/16 05:29:33;;;;;;;6.97;2.40;;;5.60;99.90;;;;;;5124457;28;20226;-67
2021/10/16 05:32:00;;;;;;;10.33;2.73;;;5.60;99.90;;;;;;5129093;28;20196;-67
2021/10/16 05:34:27;;;;;;;14.10;2.83;;;5.60;99.90;;;;;;5121281;28;20248;-67
2021/10/16 05:36:53;;;;;;;12.20;3.50;;;5.70;99.90;;;;;;5128545;28;20201;-67
2021/10/16 05:39:22;;;;;;;5.63;2.17;;;5.70;99.90;;;;;;5129089;28;20200;-67
2021/10/16 05:41:48;;;;;;;6.67;2.27;;;5.60;99.90;;;;;;5130506;27;20196;-67
2021/10/16 05:44:15;;;;;;;8.87;3.13;;;5.60;99.90;;;;;;5120116;28;20201;-67
2021/10/16 05:46:42;;;;;;;8.10;2.57;;;5.70;99.90;;;;;;5132450;27;20642;-67
2021/10/16 05:49:09;;;;;;;10.73;2.80;;;5.70;99.90;;;;;;5131755;27;20932;-67
2021/10/16 05:51:36;;;;;;;7.53;2.20;;;5.50;99.90;;;;;;5131190;27;21878;-67
2021/10/16 05:54:03;;;;;;;8.10;2.83;;;5.50;99.90;;;;;;5124342;27;20244;-67
2021/10/16 05:56:31;;;;;;;8.93;3.53;;;5.40;99.90;;;;;;5128073;27;20287;-67
2021/10/16 05:58:59;;;;;;;11.43;4.53;;;5.50;99.90;;;;;;5128763;27;20196;-68
2021/10/16 06:01:27;;;;;;;9.50;2.97;;;5.50;99.90;;;;;;5123139;27;20208;-67
2021/10/16 06:03:54;;;;;;;12.30;2.50;;;5.60;99.90;;;;;;5134659;27;20219;-67
2021/10/16 06:06:20;;;;;;;8.63;2.13;;;5.50;99.90;;;;;;5134423;27;20206;-67
2021/10/16 06:08:47;;;;;;;8.00;2.87;;;5.50;99.90;;;;;;5129088;27;20196;-67
2021/10/16 06:11:14;;;;;;;4.93;2.33;;;5.50;99.90;;;;;;5114966;28;20201;-67
2021/10/16 06:13:43;;;;;;;9.37;3.07;;;5.50;99.90;;;;;;5116793;27;20224;-67
2021/10/16 06:16:10;;;;;;;8.27;2.87;;;5.50;99.90;;;;;;5130836;27;20200;-67
2021/10/16 06:18:36;;;;;;;10.50;2.87;;;5.60;99.90;;;;;;5132269;27;20193;-67
2021/10/16 06:21:04;;;;;;;10.27;2.97;;;5.60;99.90;;;;;;5134568;27;20215;-67
2021/10/16 06:23:31;;;;;;;7.03;2.80;;;5.80;99.90;;;;;;5131063;27;20224;-67
2021/10/16 06:25:58;;;;;;;9.93;3.17;;;5.90;99.90;;;;;;5134544;27;20188;-67
2021/10/16 06:28:25;;;;;;;10.80;2.70;;;5.90;99.90;;;;;;5123488;27;20204;-67
2021/10/16 06:30:53;;;;;;;9.47;2.90;;;6.10;99.90;;;;;;5134302;27;20203;-67
2021/10/16 06:33:20;;;;;;;7.70;3.00;;;6.10;99.90;;;;;;5123361;27;20194;-67
2021/10/16 06:35:47;;;;;;;8.20;3.17;;;6.10;99.90;;;;;;5123333;27;20220;-67
2021/10/16 06:38:14;;;;;;;11.30;3.23;;;6.10;99.90;;;;;;5128310;27;20201;-67
2021/10/16 06:40:40;;;;;;;11.97;3.63;;;6.20;99.90;;;;;;5126582;27;20664;-67
2021/10/16 06:43:07;;;;;;;10.50;3.20;;;6.30;99.90;;;;;;5126105;27;20203;-67
2021/10/16 06:45:35;;;;;;;11.33;3.20;;;6.40;99.90;;;;;;5132665;27;20189;-67
2021/10/16 06:48:03;;;;;;;14.20;3.37;;;6.50;99.90;;;;;;5128628;27;20204;-67
2021/10/16 06:50:30;;;;;;;9.57;2.90;;;6.60;99.90;;;;;;5127368;27;20658;-67
2021/10/16 06:52:57;;;;;;;10.80;4.00;;;6.70;99.90;;;;;;5132401;27;20238;-67
2021/10/16 06:55:23;;;;;;;11.53;3.33;;;6.70;99.90;;;;;;5130692;27;20220;-67
2021/10/16 06:57:50;;;;;;;10.50;3.20;;;6.80;99.90;;;;;;5126226;27;20200;-67
2021/10/16 07:00:17;;;;;;;9.87;3.53;;;6.80;99.90;;;;;;5132207;27;20575;-67
2021/10/16 07:02:44;;;;;;;9.97;3.30;;;6.90;99.90;;;;;;5132047;27;20201;-67
2021/10/16 07:05:12;;;;;;;16.80;3.93;;;6.90;99.90;;;;;;5132257;27;20251;-67
2021/10/16 07:07:39;;;;;;;9.23;3.77;;;7.00;99.90;;;;;;5128424;27;20212;-67
2021/10/16 07:10:07;;;;;;;11.60;3.53;;;7.10;99.90;;;;;;5133080;27;20211;-67
2021/10/16 07:12:35;;;;;;;11.97;3.60;;;7.10;99.90;;;;;;5125386;27;20197;-67
2021/10/16 07:15:03;;;;;;;15.93;4.13;;;7.20;99.90;;;;;;5121429;27;20725;-67
2021/10/16 07:17:29;;;;;;;11.83;3.80;;;7.20;99.90;;;;;;5123074;27;20205;-67
2021/10/16 07:19:56;;;;;;;8.87;3.77;;;7.30;99.90;;;;;;5119057;27;20196;-67
2021/10/16 07:22:25;;;;;;;10.67;3.50;;;7.30;99.90;;;;;;5129736;27;20562;-67
2021/10/16 07:24:52;;;;;;;9.27;4.07;;;7.40;99.90;;;;;;5125502;27;20683;-67
2021/10/16 07:27:19;;;;;;;8.77;3.50;;;7.40;99.90;;;;;;5127548;27;20215;-67
2021/10/16 07:29:46;;;;;;;10.80;3.87;;;7.50;99.90;;;;;;5123829;27;20193;-67
2021/10/16 07:32:14;;;;;;;14.10;3.93;;;7.60;99.90;;;;;;5127059;27;20208;-67
2021/10/16 07:34:41;;;;;;;9.87;3.90;;;7.60;99.90;;;;;;5120105;27;20633;-67
2021/10/16 07:37:08;;;;;;;14.57;4.40;;;7.70;99.90;;;;;;5123705;27;20205;-68
2021/10/16 07:39:36;;;;;;;16.10;4.47;;;7.80;99.90;;;;;;5123731;27;20205;-67
2021/10/16 07:42:03;;;;;;;16.70;4.67;;;7.80;99.90;;;;;;5120521;27;20247;-67
2021/10/16 07:44:30;;;;;;;8.97;4.40;;;8.00;99.90;;;;;;5129722;27;20215;-68
2021/10/16 07:46:56;;;;;;;11.17;3.70;;;8.00;99.90;;;;;;5118836;27;20200;-67
2021/10/16 07:49:23;;;;;;;16.40;4.53;;;8.10;99.90;;;;;;5122468;27;20207;-67
2021/10/16 07:51:50;;;;;;;11.90;4.03;;;8.20;99.90;;;;;;5118904;27;20201;-67
2021/10/16 07:54:18;;;;;;;11.27;4.27;;;8.20;99.90;;;;;;5113670;27;20560;-76
2021/10/16 07:56:46;;;;;;;13.13;4.97;;;8.30;99.90;;;;;;5120236;27;20205;-77
2021/10/16 07:59:13;;;;;;;13.27;5.17;;;8.40;99.90;;;;;;5116262;27;20208;-67
2021/10/16 08:01:40;;;;;;;11.43;5.40;;;8.40;99.90;;;;;;5122230;27;20193;-68
2021/10/16 08:04:07;;;;;;;13.27;4.73;;;8.40;99.90;;;;;;5124755;27;20202;-67
2021/10/16 08:06:34;;;;;;;16.50;5.73;;;8.40;99.90;;;;;;5122441;27;20206;-68
2021/10/16 08:09:01;;;;;;;14.87;5.77;;;8.40;99.90;;;;;;5116314;27;20197;-68
2021/10/16 08:11:28;;;;;;;11.87;5.13;;;8.50;99.90;;;;;;5112288;28;20205;-67
2021/10/16 08:13:56;;;;;;;13.27;5.53;;;8.40;99.90;;;;;;5115392;27;20205;-67
2021/10/16 08:16:23;;;;;;;13.27;5.73;;;8.50;99.90;;;;;;5125488;27;20700;-67
2021/10/16 08:18:50;;;;;;;17.57;6.10;;;8.60;99.90;;;;;;5120494;27;20200;-67
2021/10/16 08:21:17;;;;;;;17.73;5.60;;;8.60;99.90;;;;;;5117932;27;20654;-67
2021/10/16 08:23:43;;;;;;;16.30;5.97;;;8.80;99.90;;;;;;5116728;27;20780;-67
2021/10/16 08:26:11;;;;;;;13.70;5.73;;;8.80;99.90;;;;;;5118195;27;20209;-67
2021/10/16 08:28:37;;;;;;;11.50;5.53;;;8.90;99.90;;;;;;5111939;27;20215;-67
2021/10/16 08:31:06;;;;;;;15.27;5.37;;;8.80;99.90;;;;;;5120932;27;20203;-67
2021/10/16 08:33:34;;;;;;;16.53;5.57;;;8.90;99.90;;;;;;5107602;27;20204;-67
2021/10/16 08:36:01;;;;;;;15.47;5.63;;;8.90;99.90;;;;;;5114360;27;20260;-67
2021/10/16 08:38:28;;;;;;;14.87;5.73;;;9.00;99.90;;;;;;5118117;27;20253;-67
2021/10/16 08:40:55;;;;;;;13.17;5.67;;;9.00;99.90;;;;;;5112583;27;20851;-67
2021/10/16 08:43:22;;;;;;;16.43;6.67;;;9.00;99.90;;;;;;5118908;27;20677;-67
2021/10/16 08:45:49;;;;;;;15.60;6.07;;;9.10;99.90;;;;;;5114294;27;20465;-67
2021/10/16 08:48:18;;;;;;;16.67;5.90;;;9.30;99.90;;;;;;5111752;28;20215;-67
2021/10/16 08:50:47;;;;;;;17.80;7.57;;;9.30;99.90;;;;;;5115245;28;20691;-67
2021/10/16 08:53:14;;;;;;;14.53;6.40;;;9.40;99.90;;;;;;5114738;28;20204;-67
2021/10/16 08:55:42;;;;;;;14.97;5.47;;;9.50;99.90;;;;;;5111518;27;20679;-67
2021/10/16 08:58:09;;;;;;;20.63;7.63;;;9.60;99.90;;;;;;5112349;27;20208;-68
2021/10/16 09:00:43;;;;;;;19.73;6.97;;;9.70;99.90;;;;;;5110943;27;20299;-67
2021/10/16 09:03:27;;;;;;;11.37;5.60;;;9.80;99.90;;;;;;5111390;27;20212;-67
2021/10/16 09:05:59;;;;;;;16.10;6.07;;;9.70;99.90;;;;;;5122714;27;20200;-67
2021/10/16 09:08:30;;;;;;;14.73;5.70;;;9.80;99.90;;;;;;5110849;27;20220;-67
2021/10/16 09:11:27;;;;;;;13.40;5.53;;;9.80;99.90;;;;;;5115938;27;20550;-68
2021/10/16 09:14:01;;;;;;;14.67;5.57;;;10.00;99.90;;;;;;5118545;27;20201;-67
2021/10/16 09:16:30;;;;;;;16.13;5.37;;;9.90;99.90;;;;;;5115387;27;20243;-67
2021/10/16 09:19:02;;;;;;;9.93;4.37;;;10.10;99.90;;;;;;5115580;27;20204;-67
2021/10/16 09:21:31;;;;;;;14.03;4.90;;;10.10;99.90;;;;;;5112509;27;20207;-68
2021/10/16 09:24:07;;;;;;;11.37;4.70;;;10.10;99.90;;;;;;5117375;27;20325;-67
2021/10/16 09:26:36;;;;;;;13.77;4.33;;;10.20;99.90;;;;;;5116319;27;20646;-67
2021/10/16 09:29:06;;;;;;;10.70;4.63;;;10.30;99.90;;;;;;5113394;27;20572;-67
2021/10/16 09:31:36;;;;;;;12.10;4.83;;;10.30;99.90;;;;;;5120835;27;20204;-67
2021/10/16 09:34:05;;;;;;;12.77;4.73;;;10.40;99.90;;;;;;5119727;27;20211;-67
2021/10/16 09:36:34;;;;;;;15.03;5.03;;;10.40;99.90;;;;;;5120691;27;20686;-68
2021/10/16 09:39:02;;;;;;;12.07;4.87;;;10.60;99.90;;;;;;5121615;27;20223;-67
2021/10/16 09:41:30;;;;;;;12.70;4.63;;;10.80;99.90;;;;;;5121923;27;20211;-68
2021/10/16 09:43:58;;;;;;;9.23;4.40;;;10.90;99.90;;;;;;5120246;27;20225;-67
2021/10/16 09:46:25;;;;;;;11.40;4.17;;;10.90;99.90;;;;;;5118372;27;20212;-67
2021/10/16 09:48:53;;;;;;;13.00;5.17;;;11.00;99.90;;;;;;5118961;27;20205;-67
2021/10/16 09:51:22;;;;;;;9.67;4.27;;;11.20;99.90;;;;;;5116618;27;20232;-67
2021/10/16 09:54:05;;;;;;;10.27;4.83;;;11.40;99.90;;;;;;5112582;27;20284;-67
2021/10/16 09:56:34;;;;;;;13.37;4.77;;;11.30;99.90;;;;;;5118363;27;20217;-68
2021/10/16 09:59:02;;;;;;;11.60;5.07;;;11.40;99.90;;;;;;5114570;27;20200;-68
2021/10/16 10:01:30;;;;;;;12.07;4.87;;;11.50;99.90;;;;;;5117906;27;20204;-68
2021/10/16 10:03:57;;;;;;;12.73;4.80;;;11.70;99.90;;;;;;5113949;27;20208;-67
2021/10/16 10:06:27;;;;;;;14.70;5.10;;;11.70;99.90;;;;;;5117370;27;20564;-68
2021/10/16 10:08:55;;;;;;;13.83;6.57;;;12.10;99.90;;;;;;5112544;27;20197;-68
2021/10/16 10:11:22;;;;;;;13.77;4.63;;;12.30;99.90;;;;;;5120836;27;20205;-68
2021/10/16 10:13:49;;;;;;;11.13;4.27;;;12.20;99.90;;;;;;5117699;27;20218;-67
2021/10/16 10:16:16;;;;;;;12.30;4.40;;;12.90;99.90;;;;;;5113806;27;20631;-69
2021/10/16 10:19:02;;;;;;;10.07;3.70;;;13.20;99.90;;;;;;5122558;27;20220;-68
2021/10/16 10:21:36;;;;;;;9.23;3.97;;;13.40;99.90;;;;;;5114701;27;20219;-67
2021/10/16 10:24:05;;;;;;;9.03;3.60;;;13.50;99.90;;;;;;5114362;27;20205;-68
2021/10/16 10:26:33;;;;;;;8.40;3.30;;;13.70;99.90;;;;;;5119692;27;20211;-68
2021/10/16 10:29:05;;;;;;;9.80;3.83;;;13.90;99.90;;;;;;5119517;27;20196;-68
2021/10/16 10:31:57;;;;;;;6.10;2.77;;;13.80;99.90;;;;;;5121018;27;20200;-68
2021/10/16 10:34:28;;;;;;;7.80;2.90;;;14.00;99.90;;;;;;5119507;27;20615;-68
2021/10/16 10:37:01;;;;;;;6.23;1.97;;;14.10;99.90;;;;;;5120282;27;20738;-68
2021/10/16 10:39:40;;;;;;;11.43;2.53;;;14.50;99.90;;;;;;5112844;27;20631;-68
2021/10/16 10:42:45;;;;;;;6.33;2.30;;;14.40;99.90;;;;;;5112817;27;20221;-68
2021/10/16 10:45:32;;;;;;;4.03;1.70;;;13.80;99.90;;;;;;5121313;27;20219;-69
2021/10/16 10:48:04;;;;;;;5.67;1.97;;;13.30;99.90;;;;;;5115490;27;20204;-67
2021/10/16 10:50:54;;;;;;;2.07;1.30;;;12.90;99.90;;;;;;5109478;27;20205;-68
2021/10/16 10:53:40;;;;;;;3.57;1.37;;;12.70;99.90;;;;;;5113229;27;20201;-68
2021/10/16 10:56:21;;;;;;;6.07;1.53;;;12.50;99.90;;;;;;5114751;27;20212;-67
2021/10/16 10:59:03;;;;;;;5.60;1.40;;;12.50;99.90;;;;;;5115459;27;20300;-68
2021/10/16 11:02:03;;;;;;;6.00;1.73;;;12.30;99.90;;;;;;5117327;27;20212;-68
2021/10/16 11:04:45;;;;;;;3.37;1.50;;;12.30;99.90;;;;;;5115024;27;20257;-68
2021/10/16 11:07:15;;;;;;;7.67;2.63;;;12.20;99.90;;;;;;5116489;27;20201;-68
2021/10/16 11:09:43;;;;;;;5.37;2.50;;;12.10;99.90;;;;;;5107818;27;20205;-68
2021/10/16 11:12:12;;;;;;;5.80;3.10;;;12.10;99.90;;;;;;5110998;27;20551;-68
2021/10/16 11:14:40;;;;;;;8.23;1.90;;;12.00;99.90;;;;;;5106926;27;20208;-68
2021/10/16 11:17:09;;;;;;;5.87;2.03;;;12.10;99.90;;;;;;5115559;27;20220;-68
2021/10/16 11:19:53;;;;;;;4.63;1.70;;;12.20;99.90;;;;;;5112287;27;20209;-68
2021/10/16 11:22:21;;;;;;;6.13;1.73;;;12.20;99.90;;;;;;5110273;27;20644;-68
2021/10/16 11:24:49;;;;;;;5.00;1.90;;;12.20;99.90;;;;;;5118962;27;20582;-68
2021/10/16 11:27:22;;;;;;;4.80;2.00;;;12.50;99.90;;;;;;5113089;27;20216;-68
2021/10/16 11:29:49;;;;;;;7.83;1.83;;;12.60;99.90;;;;;;5109274;27;20702;-68
2021/10/16 11:32:19;;;;;;;7.00;2.57;;;12.70;99.90;;;;;;5115232;27;20208;-68
2021/10/16 11:34:56;;;;;;;7.27;2.13;;;12.70;99.90;;;;;;5112595;27;20243;-67
2021/10/16 11:37:38;;;;;;;3.33;1.70;;;12.90;99.90;;;;;;5116245;27;20678;-67
2021/10/16 11:40:09;;;;;;;5.37;1.70;;;13.60;99.90;;;;;;5109142;27;20209;-67
2021/10/16 11:42:38;;;;;;;4.10;1.87;;;13.70;99.90;;;;;;5113685;27;20204;-67
2021/10/16 11:45:11;;;;;;;6.03;1.90;;;14.10;99.90;;;;;;5110987;27;20223;-67
2021/10/16 11:47:39;;;;;;;4.50;1.10;;;14.30;99.90;;;;;;5111965;27;20208;-66
2021/10/16 11:50:11;;;;;;;2.77;1.30;;;14.90;99.90;;;;;;5109788;27;20209;-67
2021/10/16 11:52:38;;;;;;;2.57;0.93;;;15.20;99.90;;;;;;5109075;27;20205;-67
2021/10/16 11:55:14;;;;;;;3.53;1.30;;;14.80;99.90;;;;;;5114272;27;20204;-67
2021/10/16 11:57:41;;;;;;;2.10;0.80;;;14.50;99.90;;;;;;5114400;27;20923;-67
2021/10/16 12:00:26;;;;;;;3.33;0.80;;;14.10;99.90;;;;;;5111247;27;20216;-67
2021/10/16 12:02:54;;;;;;;4.23;1.10;;;13.90;99.90;;;;;;5113128;27;20559;-67
2021/10/16 12:05:24;;;;;;;2.90;0.83;;;13.60;99.90;;;;;;5112809;27;20208;-67
2021/10/16 12:07:51;;;;;;;3.97;1.20;;;13.50;99.90;;;;;;5111542;27;20725;-67
2021/10/16 12:10:25;;;;;;;2.47;0.80;;;13.30;99.90;;;;;;5113791;27;20207;-67
2021/10/16 12:13:02;;;;;;;2.70;0.97;;;13.30;99.90;;;;;;5113454;27;20205;-67
2021/10/16 12:15:51;;;;;;;1.63;0.80;;;13.20;99.90;;;;;;5112598;27;20749;-68
2021/10/16 12:18:21;;;;;;;5.03;1.00;;;13.20;99.90;;;;;;5111642;27;20215;-68
2021/10/16 12:20:50;;;;;;;1.83;0.90;;;13.10;99.90;;;;;;5109208;27;20209;-68
2021/10/16 12:23:18;;;;;;;2.13;0.73;;;13.10;99.90;;;;;;5111739;27;20205;-68
2021/10/16 12:26:02;;;;;;;2.13;0.90;;;13.00;99.90;;;;;;5115169;27;20197;-68
2021/10/16 12:28:28;;;;;;;9.63;5.70;;;12.90;99.90;;;;;;5111961;27;20331;-68
2021/10/16 12:31:07;;;;;;;0.77;0.77;;;13.00;99.90;;;;;;5116112;27;20230;-67
2021/10/16 12:33:57;;;;;;;1.97;0.60;;;13.00;99.90;;;;;;5117999;27;20204;-68
2021/10/16 12:36:26;;;;;;;1.90;1.00;;;13.10;99.90;;;;;;5116167;27;20227;-68
2021/10/16 12:38:53;;;;;;;1.43;0.80;;;13.10;99.90;;;;;;5118297;27;20201;-68
2021/10/16 12:41:27;;;;;;;1.27;0.73;;;13.10;99.90;;;;;;5112962;27;20200;-68
2021/10/16 12:43:55;;;;;;;1.20;0.70;;;13.30;99.30;;;;;;5111470;27;20668;-68
2021/10/16 12:46:26;;;;;;;1.77;0.70;;;13.40;98.10;;;;;;5109797;27;20205;-68
2021/10/16 12:48:53;;;;;;;1.80;0.70;;;13.50;97.50;;;;;;5116303;27;20727;-68
2021/10/16 12:51:35;;;;;;;1.83;0.50;;;14.20;98.00;;;;;;5114191;27;20208;-68
2021/10/16 12:54:02;;;;;;;1.73;0.73;;;14.40;95.50;;;;;;5109422;27;20253;-67
2021/10/16 12:56:30;;;;;;;0.67;0.60;;;14.50;95.30;;;;;;5119961;27;20694;-68
2021/10/16 12:58:59;;;;;;;0.43;0.40;;;14.50;94.20;;;;;;5116520;27;20658;-68
2021/10/16 13:01:27;;;;;;;0.97;0.50;;;14.40;94.30;;;;;;5128471;27;20272;-68